sensor_id;sensor_type;location;lat;lon;timestamp;P1;durP1;ratioP1;P2;durP2;ratioP2
27839;SDS011;15207;42.182;24.308;2022-11-20T00:01:22;40.20;;;23.45;;
27839;SDS011;15207;42.182;24.308;2022-11-20T00:03:50;34.70;;;22.30;;
27839;SDS011;15207;42.182;24.308;2022-11-20T00:06:18;30.80;;;19.45;;
27839;SDS011;15207;42.182;24.308;2022-11-20T00:08:45;44.85;;;24.05;;
27839;SDS011;15207;42.182;24.308;2022-11-20T00:11:12;46.57;;;23.60;;
27839;SDS011;15207;42.182;24.308;2022-11-20T00:13:41;36.50;;;21.70;;
27839;SDS011;15207;42.182;24.308;2022-11-20T00:16:08;35.80;;;21.60;;
27839;SDS011;15207;42.182;24.308;2022-11-20T00:18:35;37.80;;;21.80;;
27839;SDS011;15207;42.182;24.308;2022-11-20T00:21:02;47.60;;;27.60;;
27839;SDS011;15207;42.182;24.308;2022-11-20T00:23:28;50.40;;;25.55;;
27839;SDS011;15207;42.182;24.308;2022-11-20T00:25:53;46.93;;;26.00;;
27839;SDS011;15207;42.182;24.308;2022-11-20T00:28:19;44.33;;;24.43;;
27839;SDS011;15207;42.182;24.308;2022-11-20T00:30:44;39.70;;;22.85;;
27839;SDS011;15207;42.182;24.308;2022-11-20T00:33:09;32.30;;;20.40;;
27839;SDS011;15207;42.182;24.308;2022-11-20T00:35:35;28.25;;;18.45;;
27839;SDS011;15207;42.182;24.308;2022-11-20T00:38:00;29.55;;;18.85;;
27839;SDS011;15207;42.182;24.308;2022-11-20T00:40:26;30.63;;;19.43;;
27839;SDS011;15207;42.182;24.308;2022-11-20T00:42:51;31.30;;;18.80;;
27839;SDS011;15207;42.182;24.308;2022-11-20T00:45:17;34.95;;;19.70;;
27839;SDS011;15207;42.182;24.308;2022-11-20T00:47:43;31.90;;;18.70;;
27839;SDS011;15207;42.182;24.308;2022-11-20T00:50:08;36.00;;;20.55;;
27839;SDS011;15207;42.182;24.308;2022-11-20T00:52:34;39.20;;;22.30;;
27839;SDS011;15207;42.182;24.308;2022-11-20T00:57:25;42.15;;;22.30;;
27839;SDS011;15207;42.182;24.308;2022-11-20T00:59:50;38.25;;;21.55;;
27839;SDS011;15207;42.182;24.308;2022-11-20T01:02:16;40.80;;;23.20;;
27839;SDS011;15207;42.182;24.308;2022-11-20T01:04:42;37.30;;;22.00;;
27839;SDS011;15207;42.182;24.308;2022-11-20T01:07:07;39.40;;;22.80;;
27839;SDS011;15207;42.182;24.308;2022-11-20T01:09:33;40.30;;;24.25;;
27839;SDS011;15207;42.182;24.308;2022-11-20T01:11:58;40.90;;;23.95;;
27839;SDS011;15207;42.182;24.308;2022-11-20T01:14:25;36.90;;;21.90;;
27839;SDS011;15207;42.182;24.308;2022-11-20T01:16:51;37.93;;;20.40;;
27839;SDS011;15207;42.182;24.308;2022-11-20T01:19:18;37.55;;;20.60;;
27839;SDS011;15207;42.182;24.308;2022-11-20T01:21:47;41.20;;;22.95;;
27839;SDS011;15207;42.182;24.308;2022-11-20T01:24:15;37.95;;;22.75;;
27839;SDS011;15207;42.182;24.308;2022-11-20T01:26:42;42.63;;;22.87;;
27839;SDS011;15207;42.182;24.308;2022-11-20T01:29:16;39.60;;;22.80;;
27839;SDS011;15207;42.182;24.308;2022-11-20T01:31:48;40.90;;;24.25;;
27839;SDS011;15207;42.182;24.308;2022-11-20T01:36:42;44.73;;;26.60;;
27839;SDS011;15207;42.182;24.308;2022-11-20T01:39:13;54.97;;;28.03;;
27839;SDS011;15207;42.182;24.308;2022-11-20T01:41:43;48.90;;;27.80;;
27839;SDS011;15207;42.182;24.308;2022-11-20T01:50:09;48.55;;;26.40;;
27839;SDS011;15207;42.182;24.308;2022-11-20T01:52:52;51.40;;;25.70;;
27839;SDS011;15207;42.182;24.308;2022-11-20T01:57:47;38.30;;;24.15;;
27839;SDS011;15207;42.182;24.308;2022-11-20T02:00:14;43.20;;;23.95;;
27839;SDS011;15207;42.182;24.308;2022-11-20T02:02:47;44.80;;;25.70;;
27839;SDS011;15207;42.182;24.308;2022-11-20T02:10:17;43.40;;;23.40;;
27839;SDS011;15207;42.182;24.308;2022-11-20T02:17:53;50.60;;;26.10;;
27839;SDS011;15207;42.182;24.308;2022-11-20T02:20:19;45.60;;;26.67;;
27839;SDS011;15207;42.182;24.308;2022-11-20T02:25:18;54.45;;;26.10;;
27839;SDS011;15207;42.182;24.308;2022-11-20T02:27:45;50.05;;;26.25;;
27839;SDS011;15207;42.182;24.308;2022-11-20T02:30:11;43.60;;;25.83;;
27839;SDS011;15207;42.182;24.308;2022-11-20T02:32:37;39.60;;;23.60;;
27839;SDS011;15207;42.182;24.308;2022-11-20T02:35:07;40.60;;;23.00;;
27839;SDS011;15207;42.182;24.308;2022-11-20T02:37:35;37.60;;;24.10;;
27839;SDS011;15207;42.182;24.308;2022-11-20T02:40:03;41.40;;;23.60;;
27839;SDS011;15207;42.182;24.308;2022-11-20T02:42:30;43.00;;;25.40;;
27839;SDS011;15207;42.182;24.308;2022-11-20T02:44:55;43.50;;;26.05;;
27839;SDS011;15207;42.182;24.308;2022-11-20T02:47:21;45.63;;;28.25;;
27839;SDS011;15207;42.182;24.308;2022-11-20T02:49:46;46.60;;;26.80;;
27839;SDS011;15207;42.182;24.308;2022-11-20T02:52:12;48.38;;;28.17;;
27839;SDS011;15207;42.182;24.308;2022-11-20T02:54:37;53.70;;;27.40;;
27839;SDS011;15207;42.182;24.308;2022-11-20T02:57:03;47.35;;;26.60;;
27839;SDS011;15207;42.182;24.308;2022-11-20T02:59:28;48.60;;;26.85;;
27839;SDS011;15207;42.182;24.308;2022-11-20T03:01:54;45.30;;;27.00;;
27839;SDS011;15207;42.182;24.308;2022-11-20T03:04:19;48.85;;;29.50;;
27839;SDS011;15207;42.182;24.308;2022-11-20T03:06:45;53.25;;;28.60;;
27839;SDS011;15207;42.182;24.308;2022-11-20T03:11:36;49.67;;;29.38;;
27839;SDS011;15207;42.182;24.308;2022-11-20T03:14:03;49.00;;;28.00;;
27839;SDS011;15207;42.182;24.308;2022-11-20T03:16:30;51.90;;;28.90;;
27839;SDS011;15207;42.182;24.308;2022-11-20T03:18:56;50.00;;;28.60;;
27839;SDS011;15207;42.182;24.308;2022-11-20T03:21:22;56.00;;;30.10;;
27839;SDS011;15207;42.182;24.308;2022-11-20T03:23:48;49.20;;;29.50;;
27839;SDS011;15207;42.182;24.308;2022-11-20T03:26:15;50.60;;;29.10;;
27839;SDS011;15207;42.182;24.308;2022-11-20T03:31:13;48.05;;;27.60;;
27839;SDS011;15207;42.182;24.308;2022-11-20T03:33:40;43.05;;;26.60;;
27839;SDS011;15207;42.182;24.308;2022-11-20T03:36:11;48.60;;;26.90;;
27839;SDS011;15207;42.182;24.308;2022-11-20T03:38:38;39.30;;;24.50;;
27839;SDS011;15207;42.182;24.308;2022-11-20T03:41:06;36.15;;;21.80;;
27839;SDS011;15207;42.182;24.308;2022-11-20T03:43:33;30.30;;;18.35;;
27839;SDS011;15207;42.182;24.308;2022-11-20T03:48:24;22.23;;;13.70;;
27839;SDS011;15207;42.182;24.308;2022-11-20T03:50:51;24.50;;;14.60;;
27839;SDS011;15207;42.182;24.308;2022-11-20T03:53:18;28.20;;;17.20;;
27839;SDS011;15207;42.182;24.308;2022-11-20T03:55:52;33.17;;;16.77;;
27839;SDS011;15207;42.182;24.308;2022-11-20T03:58:27;24.95;;;15.38;;
27839;SDS011;15207;42.182;24.308;2022-11-20T04:00:53;30.67;;;16.65;;
27839;SDS011;15207;42.182;24.308;2022-11-20T04:03:18;26.70;;;15.90;;
27839;SDS011;15207;42.182;24.308;2022-11-20T04:05:44;26.20;;;15.90;;
27839;SDS011;15207;42.182;24.308;2022-11-20T04:10:35;28.67;;;16.75;;
27839;SDS011;15207;42.182;24.308;2022-11-20T04:13:01;35.30;;;17.25;;
27839;SDS011;15207;42.182;24.308;2022-11-20T04:15:26;33.60;;;18.70;;
27839;SDS011;15207;42.182;24.308;2022-11-20T04:17:53;35.45;;;17.35;;
27839;SDS011;15207;42.182;24.308;2022-11-20T04:20:20;29.00;;;17.33;;
27839;SDS011;15207;42.182;24.308;2022-11-20T04:22:46;32.43;;;18.80;;
27839;SDS011;15207;42.182;24.308;2022-11-20T04:25:11;31.98;;;18.10;;
27839;SDS011;15207;42.182;24.308;2022-11-20T04:27:37;36.50;;;18.23;;
27839;SDS011;15207;42.182;24.308;2022-11-20T04:30:03;33.47;;;16.92;;
27839;SDS011;15207;42.182;24.308;2022-11-20T04:32:28;28.70;;;16.10;;
27839;SDS011;15207;42.182;24.308;2022-11-20T04:34:54;28.45;;;15.25;;
27839;SDS011;15207;42.182;24.308;2022-11-20T04:37:19;30.42;;;17.58;;
27839;SDS011;15207;42.182;24.308;2022-11-20T04:39:45;33.70;;;17.90;;
27839;SDS011;15207;42.182;24.308;2022-11-20T04:42:11;25.70;;;16.80;;
27839;SDS011;15207;42.182;24.308;2022-11-20T04:44:55;32.42;;;17.50;;
27839;SDS011;15207;42.182;24.308;2022-11-20T04:47:22;33.60;;;17.10;;
27839;SDS011;15207;42.182;24.308;2022-11-20T04:49:47;30.10;;;17.70;;
27839;SDS011;15207;42.182;24.308;2022-11-20T04:52:13;32.28;;;17.85;;
27839;SDS011;15207;42.182;24.308;2022-11-20T04:54:38;34.55;;;18.10;;
27839;SDS011;15207;42.182;24.308;2022-11-20T04:57:04;34.10;;;19.30;;
27839;SDS011;15207;42.182;24.308;2022-11-20T04:59:30;30.20;;;19.20;;
27839;SDS011;15207;42.182;24.308;2022-11-20T05:01:55;39.25;;;19.55;;
27839;SDS011;15207;42.182;24.308;2022-11-20T05:04:21;37.60;;;19.65;;
27839;SDS011;15207;42.182;24.308;2022-11-20T05:06:46;38.72;;;19.67;;
27839;SDS011;15207;42.182;24.308;2022-11-20T05:09:12;43.60;;;21.50;;
27839;SDS011;15207;42.182;24.308;2022-11-20T05:11:38;30.20;;;17.65;;
27839;SDS011;15207;42.182;24.308;2022-11-20T05:14:04;28.85;;;16.58;;
27839;SDS011;15207;42.182;24.308;2022-11-20T05:16:29;32.35;;;18.50;;
27839;SDS011;15207;42.182;24.308;2022-11-20T05:18:55;33.28;;;19.13;;
27839;SDS011;15207;42.182;24.308;2022-11-20T05:21:21;35.35;;;20.40;;
27839;SDS011;15207;42.182;24.308;2022-11-20T05:23:46;34.85;;;20.65;;
27839;SDS011;15207;42.182;24.308;2022-11-20T05:26:13;40.20;;;23.45;;
27839;SDS011;15207;42.182;24.308;2022-11-20T05:28:40;43.37;;;24.23;;
27839;SDS011;15207;42.182;24.308;2022-11-20T05:31:07;47.60;;;23.90;;
27839;SDS011;15207;42.182;24.308;2022-11-20T05:33:36;42.75;;;22.95;;
27839;SDS011;15207;42.182;24.308;2022-11-20T05:36:06;39.00;;;22.80;;
27839;SDS011;15207;42.182;24.308;2022-11-20T05:38:32;43.83;;;23.77;;
27839;SDS011;15207;42.182;24.308;2022-11-20T05:43:34;47.25;;;23.83;;
27839;SDS011;15207;42.182;24.308;2022-11-20T05:46:01;39.90;;;21.42;;
27839;SDS011;15207;42.182;24.308;2022-11-20T05:48:27;46.20;;;22.20;;
27839;SDS011;15207;42.182;24.308;2022-11-20T05:50:53;40.10;;;22.00;;
27839;SDS011;15207;42.182;24.308;2022-11-20T05:53:19;41.50;;;21.85;;
27839;SDS011;15207;42.182;24.308;2022-11-20T05:55:44;32.70;;;19.40;;
27839;SDS011;15207;42.182;24.308;2022-11-20T05:58:10;40.70;;;20.10;;
27839;SDS011;15207;42.182;24.308;2022-11-20T06:00:35;40.07;;;19.97;;
27839;SDS011;15207;42.182;24.308;2022-11-20T06:03:01;36.60;;;21.40;;
27839;SDS011;15207;42.182;24.308;2022-11-20T06:07:52;37.20;;;21.10;;
27839;SDS011;15207;42.182;24.308;2022-11-20T06:12:43;32.80;;;19.10;;
27839;SDS011;15207;42.182;24.308;2022-11-20T06:17:34;35.25;;;18.60;;
27839;SDS011;15207;42.182;24.308;2022-11-20T06:20:00;33.20;;;17.70;;
27839;SDS011;15207;42.182;24.308;2022-11-20T06:22:25;32.20;;;16.90;;
27839;SDS011;15207;42.182;24.308;2022-11-20T06:27:17;40.10;;;17.90;;
27839;SDS011;15207;42.182;24.308;2022-11-20T06:29:42;31.30;;;17.90;;
27839;SDS011;15207;42.182;24.308;2022-11-20T06:32:08;35.60;;;18.70;;
27839;SDS011;15207;42.182;24.308;2022-11-20T06:36:59;33.00;;;18.80;;
27839;SDS011;15207;42.182;24.308;2022-11-20T06:39:24;35.37;;;16.93;;
27839;SDS011;15207;42.182;24.308;2022-11-20T06:41:50;33.10;;;17.60;;
27839;SDS011;15207;42.182;24.308;2022-11-20T06:44:16;34.55;;;18.40;;
27839;SDS011;15207;42.182;24.308;2022-11-20T06:46:41;30.30;;;17.45;;
27839;SDS011;15207;42.182;24.308;2022-11-20T06:49:07;29.70;;;17.30;;
27839;SDS011;15207;42.182;24.308;2022-11-20T06:51:32;34.00;;;18.60;;
27839;SDS011;15207;42.182;24.308;2022-11-20T06:53:58;31.75;;;17.80;;
27839;SDS011;15207;42.182;24.308;2022-11-20T06:56:23;28.70;;;16.80;;
27839;SDS011;15207;42.182;24.308;2022-11-20T06:58:49;29.20;;;16.13;;
27839;SDS011;15207;42.182;24.308;2022-11-20T07:01:14;27.65;;;15.35;;
27839;SDS011;15207;42.182;24.308;2022-11-20T07:03:40;33.40;;;15.80;;
27839;SDS011;15207;42.182;24.308;2022-11-20T07:06:06;28.30;;;14.70;;
27839;SDS011;15207;42.182;24.308;2022-11-20T07:08:33;27.05;;;15.60;;
27839;SDS011;15207;42.182;24.308;2022-11-20T07:10:59;28.00;;;14.30;;
27839;SDS011;15207;42.182;24.308;2022-11-20T07:13:27;27.35;;;15.15;;
27839;SDS011;15207;42.182;24.308;2022-11-20T07:15:53;29.30;;;15.13;;
27839;SDS011;15207;42.182;24.308;2022-11-20T07:18:19;29.20;;;14.85;;
27839;SDS011;15207;42.182;24.308;2022-11-20T07:20:45;27.77;;;13.32;;
27839;SDS011;15207;42.182;24.308;2022-11-20T07:23:10;34.25;;;12.50;;
27839;SDS011;15207;42.182;24.308;2022-11-20T07:25:36;28.95;;;9.95;;
27839;SDS011;15207;42.182;24.308;2022-11-20T07:28:01;30.60;;;11.38;;
27839;SDS011;15207;42.182;24.308;2022-11-20T07:30:28;28.48;;;11.65;;
27839;SDS011;15207;42.182;24.308;2022-11-20T07:32:55;23.23;;;10.48;;
27839;SDS011;15207;42.182;24.308;2022-11-20T07:35:21;23.85;;;10.35;;
27839;SDS011;15207;42.182;24.308;2022-11-20T07:37:47;22.45;;;10.80;;
27839;SDS011;15207;42.182;24.308;2022-11-20T07:40:14;40.00;;;11.32;;
27839;SDS011;15207;42.182;24.308;2022-11-20T07:42:49;29.55;;;10.80;;
27839;SDS011;15207;42.182;24.308;2022-11-20T07:45:16;27.80;;;9.90;;
27839;SDS011;15207;42.182;24.308;2022-11-20T07:47:42;19.50;;;8.60;;
27839;SDS011;15207;42.182;24.308;2022-11-20T07:50:08;24.75;;;9.90;;
27839;SDS011;15207;42.182;24.308;2022-11-20T07:52:34;26.83;;;11.60;;
27839;SDS011;15207;42.182;24.308;2022-11-20T07:55:00;28.70;;;13.95;;
27839;SDS011;15207;42.182;24.308;2022-11-20T07:57:26;43.40;;;16.20;;
27839;SDS011;15207;42.182;24.308;2022-11-20T07:59:51;30.20;;;12.80;;
27839;SDS011;15207;42.182;24.308;2022-11-20T08:02:17;22.58;;;10.95;;
27839;SDS011;15207;42.182;24.308;2022-11-20T08:04:43;29.60;;;11.45;;
27839;SDS011;15207;42.182;24.308;2022-11-20T08:07:08;30.30;;;11.30;;
27839;SDS011;15207;42.182;24.308;2022-11-20T08:11:59;26.20;;;9.02;;
27839;SDS011;15207;42.182;24.308;2022-11-20T08:14:43;23.00;;;9.60;;
27839;SDS011;15207;42.182;24.308;2022-11-20T08:17:09;24.15;;;9.30;;
27839;SDS011;15207;42.182;24.308;2022-11-20T08:19:34;27.70;;;10.90;;
27839;SDS011;15207;42.182;24.308;2022-11-20T08:22:00;29.83;;;10.50;;
27839;SDS011;15207;42.182;24.308;2022-11-20T08:24:26;28.80;;;10.40;;
27839;SDS011;15207;42.182;24.308;2022-11-20T08:29:17;25.75;;;11.60;;
27839;SDS011;15207;42.182;24.308;2022-11-20T08:31:42;24.08;;;11.05;;
27839;SDS011;15207;42.182;24.308;2022-11-20T08:34:08;33.05;;;10.90;;
27839;SDS011;15207;42.182;24.308;2022-11-20T08:36:34;28.98;;;8.90;;
27839;SDS011;15207;42.182;24.308;2022-11-20T08:39:00;24.80;;;8.50;;
27839;SDS011;15207;42.182;24.308;2022-11-20T08:43:57;17.07;;;6.90;;
27839;SDS011;15207;42.182;24.308;2022-11-20T08:46:30;19.55;;;6.50;;
27839;SDS011;15207;42.182;24.308;2022-11-20T08:49:02;23.70;;;6.72;;
27839;SDS011;15207;42.182;24.308;2022-11-20T08:53:57;19.30;;;6.70;;
27839;SDS011;15207;42.182;24.308;2022-11-20T08:56:22;23.00;;;7.25;;
27839;SDS011;15207;42.182;24.308;2022-11-20T08:58:49;19.00;;;6.35;;
27839;SDS011;15207;42.182;24.308;2022-11-20T09:01:16;20.60;;;6.20;;
27839;SDS011;15207;42.182;24.308;2022-11-20T09:06:07;20.38;;;6.70;;
27839;SDS011;15207;42.182;24.308;2022-11-20T09:08:33;18.90;;;5.90;;
27839;SDS011;15207;42.182;24.308;2022-11-20T09:11:01;25.00;;;5.70;;
27839;SDS011;15207;42.182;24.308;2022-11-20T09:13:27;24.75;;;6.35;;
27839;SDS011;15207;42.182;24.308;2022-11-20T09:18:23;18.03;;;6.47;;
27839;SDS011;15207;42.182;24.308;2022-11-20T09:20:49;18.02;;;6.95;;
27839;SDS011;15207;42.182;24.308;2022-11-20T09:23:16;20.10;;;6.10;;
27839;SDS011;15207;42.182;24.308;2022-11-20T09:25:42;18.90;;;6.45;;
27839;SDS011;15207;42.182;24.308;2022-11-20T09:30:34;21.65;;;6.75;;
27839;SDS011;15207;42.182;24.308;2022-11-20T09:33:00;25.80;;;7.00;;
27839;SDS011;15207;42.182;24.308;2022-11-20T09:35:26;22.60;;;6.05;;
27839;SDS011;15207;42.182;24.308;2022-11-20T09:37:52;17.80;;;5.60;;
27839;SDS011;15207;42.182;24.308;2022-11-20T09:40:27;19.95;;;6.00;;
27839;SDS011;15207;42.182;24.308;2022-11-20T09:53:24;13.55;;;3.22;;
27839;SDS011;15207;42.182;24.308;2022-11-20T09:56:11;20.45;;;3.70;;
27839;SDS011;15207;42.182;24.308;2022-11-20T09:58:41;17.75;;;3.72;;
27839;SDS011;15207;42.182;24.308;2022-11-20T10:01:20;13.50;;;3.20;;
27839;SDS011;15207;42.182;24.308;2022-11-20T10:06:17;17.80;;;3.95;;
27839;SDS011;15207;42.182;24.308;2022-11-20T10:20:18;24.10;;;4.95;;
27839;SDS011;15207;42.182;24.308;2022-11-20T10:22:58;15.25;;;4.20;;
27839;SDS011;15207;42.182;24.308;2022-11-20T10:25:47;15.35;;;4.75;;
27839;SDS011;15207;42.182;24.308;2022-11-20T10:33:35;18.02;;;4.03;;
27839;SDS011;15207;42.182;24.308;2022-11-20T10:38:47;12.27;;;3.93;;
27839;SDS011;15207;42.182;24.308;2022-11-20T10:41:24;17.13;;;3.05;;
27839;SDS011;15207;42.182;24.308;2022-11-20T10:46:40;20.85;;;3.60;;
27839;SDS011;15207;42.182;24.308;2022-11-20T10:49:15;21.60;;;3.60;;
27839;SDS011;15207;42.182;24.308;2022-11-20T10:59:59;18.30;;;5.60;;
27839;SDS011;15207;42.182;24.308;2022-11-20T11:02:48;24.37;;;6.17;;
27839;SDS011;15207;42.182;24.308;2022-11-20T11:05:36;23.35;;;5.25;;
27839;SDS011;15207;42.182;24.308;2022-11-20T11:13:27;13.80;;;4.97;;
27839;SDS011;15207;42.182;24.308;2022-11-20T11:15:56;19.40;;;3.90;;
27839;SDS011;15207;42.182;24.308;2022-11-20T11:20:49;17.50;;;2.50;;
27839;SDS011;15207;42.182;24.308;2022-11-20T11:23:56;28.05;;;3.10;;
27839;SDS011;15207;42.182;24.308;2022-11-20T11:26:21;14.70;;;2.45;;
27839;SDS011;15207;42.182;24.308;2022-11-20T11:29:01;20.85;;;2.90;;
27839;SDS011;15207;42.182;24.308;2022-11-20T11:31:33;20.85;;;3.05;;
27839;SDS011;15207;42.182;24.308;2022-11-20T11:34:06;17.55;;;2.30;;
27839;SDS011;15207;42.182;24.308;2022-11-20T11:36:33;24.23;;;2.88;;
27839;SDS011;15207;42.182;24.308;2022-11-20T11:39:00;17.57;;;2.47;;
27839;SDS011;15207;42.182;24.308;2022-11-20T11:41:30;25.25;;;3.10;;
27839;SDS011;15207;42.182;24.308;2022-11-20T12:00:58;20.20;;;2.90;;
27839;SDS011;15207;42.182;24.308;2022-11-20T12:06:12;19.15;;;2.40;;
27839;SDS011;15207;42.182;24.308;2022-11-20T12:08:59;15.83;;;2.40;;
27839;SDS011;15207;42.182;24.308;2022-11-20T12:14:00;19.30;;;3.00;;
27839;SDS011;15207;42.182;24.308;2022-11-20T12:16:30;23.35;;;3.10;;
27839;SDS011;15207;42.182;24.308;2022-11-20T12:19:02;13.20;;;2.40;;
27839;SDS011;15207;42.182;24.308;2022-11-20T12:30:02;23.35;;;3.30;;
27839;SDS011;15207;42.182;24.308;2022-11-20T12:43:21;18.30;;;2.75;;
27839;SDS011;15207;42.182;24.308;2022-11-20T12:49:13;20.70;;;3.00;;
27839;SDS011;15207;42.182;24.308;2022-11-20T12:52:15;22.00;;;3.00;;
27839;SDS011;15207;42.182;24.308;2022-11-20T13:00:47;22.40;;;2.40;;
27839;SDS011;15207;42.182;24.308;2022-11-20T13:06:20;22.30;;;3.80;;
27839;SDS011;15207;42.182;24.308;2022-11-20T13:17:00;20.90;;;3.20;;
27839;SDS011;15207;42.182;24.308;2022-11-20T13:24:25;19.60;;;3.40;;
27839;SDS011;15207;42.182;24.308;2022-11-20T13:32:32;17.20;;;2.00;;
27839;SDS011;15207;42.182;24.308;2022-11-20T13:34:58;10.65;;;1.10;;
27839;SDS011;15207;42.182;24.308;2022-11-20T13:39:53;9.30;;;1.20;;
27839;SDS011;15207;42.182;24.308;2022-11-20T13:42:45;11.70;;;2.50;;
27839;SDS011;15207;42.182;24.308;2022-11-20T13:48:03;8.05;;;1.40;;
27839;SDS011;15207;42.182;24.308;2022-11-20T13:53:08;7.30;;;1.40;;
27839;SDS011;15207;42.182;24.308;2022-11-20T14:01:29;12.07;;;2.67;;
27839;SDS011;15207;42.182;24.308;2022-11-20T14:06:29;3.70;;;1.20;;
27839;SDS011;15207;42.182;24.308;2022-11-20T14:08:58;4.30;;;1.40;;
27839;SDS011;15207;42.182;24.308;2022-11-20T14:11:25;5.95;;;1.65;;
27839;SDS011;15207;42.182;24.308;2022-11-20T14:16:30;4.10;;;1.30;;
27839;SDS011;15207;42.182;24.308;2022-11-20T14:19:16;4.30;;;1.65;;
27839;SDS011;15207;42.182;24.308;2022-11-20T14:24:13;6.20;;;2.90;;
27839;SDS011;15207;42.182;24.308;2022-11-20T14:29:12;5.05;;;2.35;;
27839;SDS011;15207;42.182;24.308;2022-11-20T14:31:39;4.25;;;1.40;;
27839;SDS011;15207;42.182;24.308;2022-11-20T14:34:12;3.57;;;0.93;;
27839;SDS011;15207;42.182;24.308;2022-11-20T14:36:42;0.90;;;0.50;;
27839;SDS011;15207;42.182;24.308;2022-11-20T14:41:37;2.83;;;1.00;;
27839;SDS011;15207;42.182;24.308;2022-11-20T14:44:03;7.60;;;1.60;;
27839;SDS011;15207;42.182;24.308;2022-11-20T14:48:56;3.95;;;1.00;;
27839;SDS011;15207;42.182;24.308;2022-11-20T14:53:53;6.05;;;1.30;;
27839;SDS011;15207;42.182;24.308;2022-11-20T14:56:22;3.42;;;1.10;;
27839;SDS011;15207;42.182;24.308;2022-11-20T14:58:56;3.50;;;1.20;;
27839;SDS011;15207;42.182;24.308;2022-11-20T15:01:29;3.00;;;1.35;;
27839;SDS011;15207;42.182;24.308;2022-11-20T15:04:00;6.00;;;1.90;;
27839;SDS011;15207;42.182;24.308;2022-11-20T15:06:31;7.10;;;1.30;;
27839;SDS011;15207;42.182;24.308;2022-11-20T15:08:57;6.27;;;1.40;;
27839;SDS011;15207;42.182;24.308;2022-11-20T15:11:27;7.30;;;1.80;;
27839;SDS011;15207;42.182;24.308;2022-11-20T15:13:58;7.72;;;1.60;;
27839;SDS011;15207;42.182;24.308;2022-11-20T15:16:28;2.45;;;1.00;;
27839;SDS011;15207;42.182;24.308;2022-11-20T15:18:54;2.35;;;1.05;;
27839;SDS011;15207;42.182;24.308;2022-11-20T15:21:20;2.23;;;1.00;;
27839;SDS011;15207;42.182;24.308;2022-11-20T15:23:46;4.85;;;1.10;;
27839;SDS011;15207;42.182;24.308;2022-11-20T15:26:13;3.45;;;1.00;;
27839;SDS011;15207;42.182;24.308;2022-11-20T15:28:44;4.00;;;1.10;;
27839;SDS011;15207;42.182;24.308;2022-11-20T15:31:13;3.30;;;1.20;;
27839;SDS011;15207;42.182;24.308;2022-11-20T15:33:41;8.63;;;2.00;;
27839;SDS011;15207;42.182;24.308;2022-11-20T15:36:07;12.40;;;6.70;;
27839;SDS011;15207;42.182;24.308;2022-11-20T15:38:33;12.60;;;6.10;;
27839;SDS011;15207;42.182;24.308;2022-11-20T15:40:59;7.90;;;3.00;;
27839;SDS011;15207;42.182;24.308;2022-11-20T15:43:24;3.60;;;2.33;;
27839;SDS011;15207;42.182;24.308;2022-11-20T15:48:21;4.40;;;1.90;;
27839;SDS011;15207;42.182;24.308;2022-11-20T15:53:28;12.90;;;4.80;;
27839;SDS011;15207;42.182;24.308;2022-11-20T15:55:54;13.30;;;5.60;;
27839;SDS011;15207;42.182;24.308;2022-11-20T16:00:45;7.13;;;3.40;;
27839;SDS011;15207;42.182;24.308;2022-11-20T16:03:15;6.70;;;2.70;;
27839;SDS011;15207;42.182;24.308;2022-11-20T16:08:07;12.80;;;4.00;;
27839;SDS011;15207;42.182;24.308;2022-11-20T16:10:32;6.75;;;3.60;;
27839;SDS011;15207;42.182;24.308;2022-11-20T16:12:58;14.40;;;3.70;;
27839;SDS011;15207;42.182;24.308;2022-11-20T16:15:42;9.10;;;3.90;;
27839;SDS011;15207;42.182;24.308;2022-11-20T16:18:18;11.03;;;5.13;;
27839;SDS011;15207;42.182;24.308;2022-11-20T16:20:47;15.90;;;5.00;;
27839;SDS011;15207;42.182;24.308;2022-11-20T16:23:17;12.90;;;5.40;;
27839;SDS011;15207;42.182;24.308;2022-11-20T16:25:43;16.85;;;5.65;;
27839;SDS011;15207;42.182;24.308;2022-11-20T16:28:09;12.48;;;4.65;;
27839;SDS011;15207;42.182;24.308;2022-11-20T16:33:02;10.70;;;4.55;;
27839;SDS011;15207;42.182;24.308;2022-11-20T16:35:29;21.60;;;8.10;;
27839;SDS011;15207;42.182;24.308;2022-11-20T16:37:57;22.60;;;8.20;;
27839;SDS011;15207;42.182;24.308;2022-11-20T16:40:23;17.80;;;7.90;;
27839;SDS011;15207;42.182;24.308;2022-11-20T16:42:50;13.25;;;6.45;;
27839;SDS011;15207;42.182;24.308;2022-11-20T16:45:16;16.80;;;7.60;;
27839;SDS011;15207;42.182;24.308;2022-11-20T16:47:42;12.60;;;6.00;;
27839;SDS011;15207;42.182;24.308;2022-11-20T16:52:34;16.85;;;6.90;;
27839;SDS011;15207;42.182;24.308;2022-11-20T16:54:59;15.90;;;6.00;;
27839;SDS011;15207;42.182;24.308;2022-11-20T16:57:28;10.95;;;5.13;;
27839;SDS011;15207;42.182;24.308;2022-11-20T16:59:55;6.65;;;3.45;;
27839;SDS011;15207;42.182;24.308;2022-11-20T17:02:21;12.40;;;4.15;;
27839;SDS011;15207;42.182;24.308;2022-11-20T17:07:13;11.45;;;2.90;;
27839;SDS011;15207;42.182;24.308;2022-11-20T17:09:38;13.85;;;3.50;;
27839;SDS011;15207;42.182;24.308;2022-11-20T17:12:04;7.45;;;2.70;;
27839;SDS011;15207;42.182;24.308;2022-11-20T17:14:30;9.65;;;4.20;;
27839;SDS011;15207;42.182;24.308;2022-11-20T17:16:56;13.60;;;5.45;;
27839;SDS011;15207;42.182;24.308;2022-11-20T17:19:21;14.50;;;4.93;;
27839;SDS011;15207;42.182;24.308;2022-11-20T17:21:47;16.63;;;4.33;;
27839;SDS011;15207;42.182;24.308;2022-11-20T17:24:13;16.60;;;3.53;;
27839;SDS011;15207;42.182;24.308;2022-11-20T17:29:15;10.70;;;3.35;;
27839;SDS011;15207;42.182;24.308;2022-11-20T17:31:43;12.00;;;4.30;;
27839;SDS011;15207;42.182;24.308;2022-11-20T17:34:11;18.10;;;4.75;;
27839;SDS011;15207;42.182;24.308;2022-11-20T17:36:38;14.30;;;3.60;;
27839;SDS011;15207;42.182;24.308;2022-11-20T17:39:06;14.40;;;3.30;;
27839;SDS011;15207;42.182;24.308;2022-11-20T17:43:59;6.90;;;2.50;;
27839;SDS011;15207;42.182;24.308;2022-11-20T17:46:27;10.90;;;2.90;;
27839;SDS011;15207;42.182;24.308;2022-11-20T17:48:54;8.10;;;2.70;;
27839;SDS011;15207;42.182;24.308;2022-11-20T17:51:21;5.85;;;2.75;;
27839;SDS011;15207;42.182;24.308;2022-11-20T17:53:55;5.60;;;2.80;;
27839;SDS011;15207;42.182;24.308;2022-11-20T17:56:26;5.75;;;2.80;;
27839;SDS011;15207;42.182;24.308;2022-11-20T17:59:13;7.10;;;3.20;;
27839;SDS011;15207;42.182;24.308;2022-11-20T18:01:39;8.15;;;3.30;;
27839;SDS011;15207;42.182;24.308;2022-11-20T18:04:07;11.32;;;3.38;;
27839;SDS011;15207;42.182;24.308;2022-11-20T18:06:33;12.13;;;3.10;;
27839;SDS011;15207;42.182;24.308;2022-11-20T18:09:00;15.80;;;3.80;;
27839;SDS011;15207;42.182;24.308;2022-11-20T18:11:30;10.55;;;3.50;;
27839;SDS011;15207;42.182;24.308;2022-11-20T18:13:59;12.00;;;3.60;;
27839;SDS011;15207;42.182;24.308;2022-11-20T18:16:45;10.70;;;3.10;;
27839;SDS011;15207;42.182;24.308;2022-11-20T18:19:14;9.30;;;3.20;;
27839;SDS011;15207;42.182;24.308;2022-11-20T18:21:41;7.47;;;3.00;;
27839;SDS011;15207;42.182;24.308;2022-11-20T18:24:07;10.15;;;3.00;;
27839;SDS011;15207;42.182;24.308;2022-11-20T18:26:34;9.70;;;3.03;;